Time;durP1;ratioP1;P1;durP2;ratioP2;P2;SDS_P1;SDS_P2;PMS_P1;PMS_P2;Temp;Humidity;BMP_temperature;BMP_pressure;BME280_temperature;BME280_humidity;BME280_pressure;Samples;Min_cycle;Max_cycle;Signal;HPM_P1;HPM_P2
2020/12/04 00:02:58;;;;;;;7.83;5.47;;;;;;;;;;10316566;28;20240;-74
2020/12/04 00:08:01;;;;;;;8.43;5.80;;;;;;;;;;10321714;28;20697;-74
2020/12/04 00:13:03;;;;;;;10.17;6.37;;;;;;;;;;10319116;28;20329;-74
2020/12/04 00:18:05;;;;;;;10.13;6.40;;;;;;;;;;10319957;28;20213;-75
2020/12/04 00:23:08;;;;;;;12.10;6.90;;;;;;;;;;10323289;28;20926;-72
2020/12/04 00:28:10;;;;;;;11.53;7.23;;;;;;;;;;10317369;28;20819;-73
2020/12/04 00:33:12;;;;;;;10.97;7.13;;;;;;;;;;10319871;28;20244;-75
2020/12/04 00:38:15;;;;;;;11.37;7.33;;;;;;;;;;10324399;28;20205;-75
2020/12/04 00:43:17;;;;;;;13.97;7.73;;;;;;;;;;10314095;28;20273;-75
2020/12/04 00:48:19;;;;;;;13.50;7.53;;;;;;;;;;10311251;28;20206;-75
2020/12/04 00:53:22;;;;;;;11.80;7.57;;;;;;;;;;10318802;28;20220;-75
2020/12/04 00:58:24;;;;;;;13.73;7.50;;;;;;;;;;10315016;28;20297;-75
2020/12/04 01:03:26;;;;;;;13.30;7.60;;;;;;;;;;10316060;28;20250;-76
2020/12/04 01:08:29;;;;;;;13.07;7.53;;;;;;;;;;10318491;28;20206;-75
2020/12/04 01:13:31;;;;;;;13.50;7.40;;;;;;;;;;10316250;28;20213;-75
2020/12/04 01:18:33;;;;;;;12.20;7.33;;;;;;;;;;10307392;28;20297;-75
2020/12/04 01:23:36;;;;;;;10.13;6.67;;;;;;;;;;10312747;28;20289;-75
2020/12/04 01:28:38;;;;;;;11.03;6.67;;;;;;;;;;10318846;28;20232;-75
2020/12/04 01:33:40;;;;;;;10.27;6.07;;;;;;;;;;10320475;28;20725;-75
2020/12/04 01:38:43;;;;;;;13.50;7.53;;;;;;;;;;10318803;28;20751;-74
2020/12/04 01:43:46;;;;;;;11.63;7.13;;;;;;;;;;10322898;28;20359;-74
2020/12/04 01:48:48;;;;;;;12.40;7.00;;;;;;;;;;10312565;28;20936;-73
2020/12/04 01:53:51;;;;;;;12.10;6.90;;;;;;;;;;10316184;28;20597;-75
2020/12/04 01:58:53;;;;;;;11.60;6.87;;;;;;;;;;10307617;28;20227;-74
2020/12/04 02:03:55;;;;;;;12.73;7.00;;;;;;;;;;10314301;28;20766;-74
2020/12/04 02:09:02;;;;;;;12.80;7.43;;;;;;;;;;10314262;28;20236;-74
2020/12/04 02:14:03;;;;;;;12.93;7.17;;;;;;;;;;10310720;28;20206;-74
2020/12/04 02:19:05;;;;;;;12.93;7.37;;;;;;;;;;10319830;28;20214;-73
2020/12/04 02:24:08;;;;;;;11.73;7.20;;;;;;;;;;10319765;28;20248;-74
2020/12/04 02:29:10;;;;;;;14.07;7.57;;;;;;;;;;10307893;28;20224;-74
2020/12/04 02:34:12;;;;;;;11.53;7.07;;;;;;;;;;10318450;28;20213;-74
2020/12/04 02:39:16;;;;;;;12.07;7.37;;;;;;;;;;10308373;28;20294;-74
2020/12/04 02:44:18;;;;;;;11.33;6.90;;;;;;;;;;10314506;28;20224;-74
2020/12/04 02:49:20;;;;;;;13.43;7.17;;;;;;;;;;10315579;28;20213;-75
2020/12/04 02:54:23;;;;;;;10.30;6.00;;;;;;;;;;10315905;28;20217;-75
2020/12/04 02:59:25;;;;;;;10.47;6.00;;;;;;;;;;10314810;28;20205;-74
2020/12/04 03:04:26;;;;;;;9.67;6.00;;;;;;;;;;10317706;28;20237;-75
2020/12/04 03:09:30;;;;;;;9.47;6.10;;;;;;;;;;10317874;28;20210;-74
2020/12/04 03:14:32;;;;;;;8.40;5.57;;;;;;;;;;10318066;28;20800;-74
2020/12/04 03:19:33;;;;;;;8.23;5.50;;;;;;;;;;10307171;28;20217;-75
2020/12/04 03:24:36;;;;;;;8.93;5.43;;;;;;;;;;10311881;28;20237;-75
2020/12/04 03:29:38;;;;;;;9.37;5.87;;;;;;;;;;10321453;28;20220;-74
2020/12/04 03:34:40;;;;;;;11.20;5.70;;;;;;;;;;10320117;28;20209;-75
2020/12/04 03:39:42;;;;;;;8.80;5.63;;;;;;;;;;10317793;28;20218;-75
2020/12/04 03:44:44;;;;;;;9.00;5.47;;;;;;;;;;10324296;28;20233;-75
2020/12/04 03:49:46;;;;;;;8.87;5.23;;;;;;;;;;10317273;28;20225;-75
2020/12/04 03:54:49;;;;;;;8.77;5.17;;;;;;;;;;10318532;28;20214;-75
2020/12/04 03:59:50;;;;;;;7.03;4.60;;;;;;;;;;10325603;28;20224;-75
2020/12/04 04:04:52;;;;;;;7.03;4.03;;;;;;;;;;10311389;28;20271;-74
2020/12/04 04:09:55;;;;;;;6.93;4.80;;;;;;;;;;10321254;28;20209;-74
2020/12/04 04:14:58;;;;;;;6.83;4.03;;;;;;;;;;10313052;28;20669;-74
2020/12/04 04:20:00;;;;;;;6.43;4.20;;;;;;;;;;10312323;28;20221;-74
2020/12/04 04:25:02;;;;;;;7.90;4.27;;;;;;;;;;10311250;28;20923;-73
2020/12/04 04:30:04;;;;;;;5.50;3.63;;;;;;;;;;10316878;28;20779;-74
2020/12/04 04:35:06;;;;;;;5.17;3.40;;;;;;;;;;10313015;28;20214;-74
2020/12/04 04:40:10;;;;;;;5.37;3.30;;;;;;;;;;10324176;28;20243;-72
2020/12/04 04:45:15;;;;;;;4.80;3.27;;;;;;;;;;10316233;28;24121;-75
2020/12/04 04:50:17;;;;;;;4.00;2.60;;;;;;;;;;10313817;28;20626;-74
2020/12/04 04:55:19;;;;;;;4.47;2.97;;;;;;;;;;10314855;28;20212;-74
2020/12/04 05:00:21;;;;;;;4.63;2.33;;;;;;;;;;10316084;28;20641;-75
2020/12/04 05:05:39;;;;;;;4.60;2.70;;;;;;;;;;10320927;28;20238;-75
2020/12/04 05:10:42;;;;;;;3.93;2.70;;;;;;;;;;10321534;28;20667;-74
2020/12/04 05:15:44;;;;;;;3.20;2.47;;;;;;;;;;10316663;28;20688;-75
2020/12/04 05:20:49;;;;;;;2.63;2.20;;;;;;;;;;10299415;28;20233;-75
2020/12/04 05:25:52;;;;;;;3.83;2.53;;;;;;;;;;10318594;28;20246;-74
2020/12/04 05:31:04;;;;;;;6.00;2.30;;;;;;;;;;10319046;28;20228;-74
2020/12/04 05:36:05;;;;;;;3.77;2.10;;;;;;;;;;10320907;28;20205;-74
2020/12/04 05:41:09;;;;;;;3.27;2.53;;;;;;;;;;10315278;28;20209;-74
2020/12/04 05:46:12;;;;;;;3.43;2.33;;;;;;;;;;10318259;28;20237;-73
2020/12/04 05:51:16;;;;;;;6.13;2.80;;;;;;;;;;10319429;28;20220;-74
2020/12/04 05:56:19;;;;;;;2.97;2.20;;;;;;;;;;10337118;28;20216;-76
2020/12/04 06:01:22;;;;;;;2.87;2.20;;;;;;;;;;10315525;28;20214;-75
2020/12/04 06:06:25;;;;;;;3.23;2.40;;;;;;;;;;10312450;28;20256;-74
2020/12/04 06:11:31;;;;;;;5.53;2.53;;;;;;;;;;10315242;28;20807;-75
2020/12/04 06:16:32;;;;;;;2.77;2.40;;;;;;;;;;10314030;28;20201;-74
2020/12/04 06:21:44;;;;;;;3.57;2.30;;;;;;;;;;10320075;28;20690;-76
2020/12/04 06:26:49;;;;;;;3.00;2.07;;;;;;;;;;10321221;28;20243;-75
2020/12/04 06:31:51;;;;;;;3.57;2.30;;;;;;;;;;10320699;28;20224;-76
2020/12/04 06:36:52;;;;;;;4.50;2.40;;;;;;;;;;10321720;28;20222;-75
2020/12/04 06:41:55;;;;;;;2.47;2.07;;;;;;;;;;10316303;28;20320;-76
2020/12/04 06:46:59;;;;;;;2.67;2.00;;;;;;;;;;10307250;28;20245;-75
2020/12/04 06:52:01;;;;;;;2.53;1.90;;;;;;;;;;10316971;28;20216;-76
2020/12/04 06:57:04;;;;;;;4.27;2.57;;;;;;;;;;10311983;28;20225;-75
2020/12/04 07:02:08;;;;;;;3.03;2.30;;;;;;;;;;10323905;28;20577;-75
2020/12/04 07:07:11;;;;;;;4.07;2.30;;;;;;;;;;10316174;28;20233;-75
2020/12/04 07:12:23;;;;;;;5.60;2.27;;;;;;;;;;10323172;28;20568;-75
2020/12/04 07:17:25;;;;;;;3.43;2.30;;;;;;;;;;10312412;28;20577;-75
2020/12/04 07:22:27;;;;;;;4.07;2.20;;;;;;;;;;10317101;28;20676;-75
2020/12/04 07:27:30;;;;;;;3.70;2.20;;;;;;;;;;10317603;28;20332;-76
2020/12/04 07:32:32;;;;;;;3.83;2.10;;;;;;;;;;10315829;28;20217;-76
2020/12/04 07:37:34;;;;;;;5.40;2.47;;;;;;;;;;10320242;28;20213;-76
2020/12/04 07:42:37;;;;;;;3.03;1.60;;;;;;;;;;10337024;28;20249;-75
2020/12/04 07:47:42;;;;;;;2.87;1.73;;;;;;;;;;10320604;28;20656;-75
2020/12/04 07:52:53;;;;;;;3.30;1.80;;;;;;;;;;10316844;28;20213;-75
2020/12/04 07:57:59;;;;;;;3.53;1.50;;;;;;;;;;10320344;28;20219;-73
2020/12/04 08:03:01;;;;;;;5.00;1.50;;;;;;;;;;10324608;28;20217;-76
2020/12/04 08:08:04;;;;;;;3.20;1.30;;;;;;;;;;10323426;28;20719;-75
2020/12/04 08:13:08;;;;;;;3.50;1.20;;;;;;;;;;10315968;28;20216;-75
2020/12/04 08:18:11;;;;;;;2.53;1.10;;;;;;;;;;10317339;28;20311;-75
2020/12/04 08:23:20;;;;;;;1.80;1.20;;;;;;;;;;10318081;28;20686;-76
2020/12/04 08:28:27;;;;;;;3.70;1.10;;;;;;;;;;10328417;28;20633;-75
2020/12/04 08:33:29;;;;;;;2.23;1.20;;;;;;;;;;10317113;28;20610;-75
2020/12/04 08:38:30;;;;;;;2.60;1.10;;;;;;;;;;10320649;28;20213;-75
2020/12/04 08:43:40;;;;;;;3.63;1.30;;;;;;;;;;10313344;28;20210;-74
2020/12/04 08:48:42;;;;;;;1.10;1.00;;;;;;;;;;10316925;28;20736;-75
2020/12/04 08:53:44;;;;;;;1.23;1.10;;;;;;;;;;10329199;28;20672;-76
2020/12/04 08:58:46;;;;;;;2.23;1.20;;;;;;;;;;10320372;28;20224;-75
2020/12/04 09:03:48;;;;;;;1.23;1.10;;;;;;;;;;10316955;28;20236;-77
2020/12/04 09:08:51;;;;;;;4.13;1.10;;;;;;;;;;10315726;28;20228;-76
2020/12/04 09:13:53;;;;;;;3.97;1.40;;;;;;;;;;10318558;28;20212;-75
2020/12/04 09:18:55;;;;;;;1.60;1.10;;;;;;;;;;10314412;28;20587;-75
2020/12/04 09:23:57;;;;;;;1.70;1.00;;;;;;;;;;10326078;28;20240;-77
2020/12/04 09:29:00;;;;;;;1.67;1.10;;;;;;;;;;10309907;28;20233;-76
2020/12/04 09:34:01;;;;;;;3.77;1.27;;;;;;;;;;10314450;28;20217;-77
2020/12/04 09:39:03;;;;;;;1.10;1.00;;;;;;;;;;10316258;28;20217;-76
2020/12/04 09:44:06;;;;;;;1.87;1.00;;;;;;;;;;10323203;28;20237;-75
2020/12/04 09:49:08;;;;;;;3.60;1.10;;;;;;;;;;10313893;28;20214;-75
2020/12/04 09:54:10;;;;;;;1.87;1.40;;;;;;;;;;10316948;28;20251;-75
2020/12/04 09:59:14;;;;;;;5.27;1.33;;;;;;;;;;10311731;28;20206;-74
2020/12/04 10:04:16;;;;;;;2.53;1.20;;;;;;;;;;10314758;28;20693;-74
2020/12/04 10:09:18;;;;;;;1.30;1.20;;;;;;;;;;10316375;28;21012;-74
2020/12/04 10:14:21;;;;;;;2.07;1.17;;;;;;;;;;10318743;28;20248;-75
2020/12/04 10:19:23;;;;;;;2.07;1.23;;;;;;;;;;10320545;28;20210;-75
2020/12/04 10:24:25;;;;;;;2.83;1.20;;;;;;;;;;10325012;28;20237;-75
2020/12/04 10:29:28;;;;;;;7.90;1.50;;;;;;;;;;10312685;28;20236;-75
2020/12/04 10:34:30;;;;;;;2.27;1.27;;;;;;;;;;10316199;28;20676;-76
2020/12/04 10:39:32;;;;;;;4.60;1.47;;;;;;;;;;10326098;28;20672;-75
2020/12/04 10:44:35;;;;;;;3.60;1.30;;;;;;;;;;10329752;28;20241;-74
2020/12/04 10:49:37;;;;;;;1.80;1.40;;;;;;;;;;10319279;28;20212;-75
2020/12/04 10:54:39;;;;;;;3.67;1.53;;;;;;;;;;10327441;28;20663;-75
2020/12/04 10:59:41;;;;;;;2.13;1.47;;;;;;;;;;10330815;28;20201;-75
2020/12/04 11:10:13;;;;;;;2.97;1.20;;;;;;;;;;10319080;28;20209;-74
2020/12/04 11:15:16;;;;;;;3.90;1.23;;;;;;;;;;10321046;28;20293;-75
2020/12/04 11:20:18;;;;;;;4.70;1.30;;;;;;;;;;10321640;28;20225;-76
2020/12/04 11:25:20;;;;;;;3.03;1.20;;;;;;;;;;10314372;28;20237;-76
2020/12/04 11:30:23;;;;;;;2.37;1.63;;;;;;;;;;10315065;28;20206;-75
2020/12/04 11:35:25;;;;;;;3.90;1.50;;;;;;;;;;10313117;28;20228;-75
2020/12/04 11:40:27;;;;;;;1.30;1.20;;;;;;;;;;10324147;28;20225;-76
2020/12/04 11:45:30;;;;;;;2.47;1.20;;;;;;;;;;10318375;28;20233;-75
2020/12/04 11:50:32;;;;;;;1.63;1.20;;;;;;;;;;10317095;28;20217;-75
2020/12/04 11:55:33;;;;;;;1.63;1.30;;;;;;;;;;10320566;28;20205;-75
2020/12/04 12:00:37;;;;;;;3.00;1.37;;;;;;;;;;10318378;28;20218;-74
2020/12/04 12:05:39;;;;;;;4.60;1.20;;;;;;;;;;10315242;28;20568;-74
2020/12/04 12:10:41;;;;;;;1.30;1.20;;;;;;;;;;10321212;28;20213;-74
2020/12/04 12:15:43;;;;;;;1.30;1.10;;;;;;;;;;10318447;28;20205;-74
2020/12/04 12:20:45;;;;;;;1.10;1.00;;;;;;;;;;10318547;28;20218;-73
2020/12/04 12:25:47;;;;;;;2.37;1.27;;;;;;;;;;10313740;28;20248;-74
2020/12/04 12:30:49;;;;;;;1.90;1.40;;;;;;;;;;10319336;28;20220;-73
2020/12/04 12:35:52;;;;;;;2.60;1.40;;;;;;;;;;10316760;28;20209;-73
2020/12/04 12:40:53;;;;;;;1.97;1.30;;;;;;;;;;10318592;28;20209;-73
2020/12/04 12:45:56;;;;;;;3.67;1.30;;;;;;;;;;10324126;28;20241;-74
2020/12/04 12:50:58;;;;;;;3.27;1.70;;;;;;;;;;10317412;28;20231;-74
2020/12/04 12:56:00;;;;;;;1.50;1.40;;;;;;;;;;10316094;28;20635;-74
2020/12/04 13:01:03;;;;;;;4.50;1.57;;;;;;;;;;10321722;28;20210;-74
2020/12/04 13:06:05;;;;;;;3.40;1.40;;;;;;;;;;10313245;28;20247;-74
2020/12/04 13:11:07;;;;;;;1.50;1.10;;;;;;;;;;10323915;28;20213;-74
2020/12/04 13:16:10;;;;;;;1.70;1.50;;;;;;;;;;10309350;28;20208;-74
2020/12/04 13:21:14;;;;;;;1.50;1.20;;;;;;;;;;10311140;28;20220;-74
2020/12/04 13:31:33;;;;;;;5.03;1.30;;;;;;;;;;10314256;28;20209;-74
2020/12/04 13:36:35;;;;;;;3.57;1.50;;;;;;;;;;10308099;28;20197;-75
2020/12/04 13:41:37;;;;;;;5.87;1.80;;;;;;;;;;10325337;28;20208;-74
2020/12/04 13:46:39;;;;;;;5.33;1.80;;;;;;;;;;10313207;28;20241;-74
2020/12/04 13:51:41;;;;;;;3.27;1.20;;;;;;;;;;10314315;28;20209;-74
2020/12/04 13:56:43;;;;;;;3.90;1.50;;;;;;;;;;10317420;28;20241;-75
2020/12/04 14:01:46;;;;;;;3.03;1.23;;;;;;;;;;10316188;28;20225;-74
2020/12/04 14:06:48;;;;;;;8.80;1.30;;;;;;;;;;10325053;28;20746;-74
2020/12/04 14:11:50;;;;;;;3.20;1.47;;;;;;;;;;10314609;28;20213;-74
2020/12/04 14:16:53;;;;;;;6.13;1.47;;;;;;;;;;10318362;28;20300;-74
2020/12/04 14:21:55;;;;;;;10.50;1.67;;;;;;;;;;10314677;28;20213;-73
2020/12/04 14:26:57;;;;;;;2.80;1.63;;;;;;;;;;10317094;28;20245;-75
2020/12/04 14:32:00;;;;;;;2.77;1.40;;;;;;;;;;10311950;28;20210;-73
2020/12/04 14:37:02;;;;;;;1.40;1.30;;;;;;;;;;10315363;28;20320;-73
2020/12/04 14:42:03;;;;;;;6.10;2.10;;;;;;;;;;10314315;28;20221;-72
2020/12/04 14:47:06;;;;;;;5.80;1.60;;;;;;;;;;10314354;28;20225;-73
2020/12/04 14:52:08;;;;;;;7.17;1.97;;;;;;;;;;10316790;28;20225;-73
2020/12/04 14:57:10;;;;;;;3.57;1.33;;;;;;;;;;10315669;28;20205;-72
2020/12/04 15:02:13;;;;;;;2.83;1.40;;;;;;;;;;10313481;28;20206;-72
2020/12/04 15:07:15;;;;;;;2.60;1.40;;;;;;;;;;10310270;28;20232;-72
2020/12/04 15:12:17;;;;;;;5.33;1.83;;;;;;;;;;10311395;28;20218;-72
2020/12/04 15:17:19;;;;;;;4.70;1.70;;;;;;;;;;10313247;28;20213;-73
2020/12/04 15:22:21;;;;;;;2.10;1.30;;;;;;;;;;10312587;28;20683;-73
2020/12/04 15:27:23;;;;;;;2.67;1.30;;;;;;;;;;10312409;28;20248;-72
2020/12/04 15:32:25;;;;;;;3.97;1.70;;;;;;;;;;10321072;28;20213;-73
2020/12/04 15:37:28;;;;;;;3.20;1.60;;;;;;;;;;10321767;28;20245;-72
2020/12/04 15:42:29;;;;;;;5.37;1.70;;;;;;;;;;10322108;28;20218;-74
2020/12/04 15:47:32;;;;;;;2.37;1.57;;;;;;;;;;10320724;28;20614;-73
2020/12/04 15:52:34;;;;;;;5.43;2.00;;;;;;;;;;10318378;28;20206;-71
2020/12/04 15:57:36;;;;;;;3.30;1.77;;;;;;;;;;10324082;28;20677;-72
2020/12/04 16:02:38;;;;;;;6.77;2.13;;;;;;;;;;10317609;28;20214;-72
2020/12/04 16:07:40;;;;;;;3.07;1.97;;;;;;;;;;10316169;28;20821;-72
2020/12/04 16:12:42;;;;;;;3.43;2.00;;;;;;;;;;10309507;28;20220;-71
2020/12/04 16:17:45;;;;;;;3.50;2.00;;;;;;;;;;10313781;28;20221;-72
2020/12/04 16:22:47;;;;;;;4.07;2.30;;;;;;;;;;10310925;28;20413;-72
2020/12/04 16:27:48;;;;;;;7.10;2.00;;;;;;;;;;10313022;28;20255;-73
2020/12/04 16:32:51;;;;;;;3.50;2.07;;;;;;;;;;10310902;28;20252;-73
2020/12/04 16:37:57;;;;;;;10.83;3.70;;;;;;;;;;10310359;28;20209;-71
2020/12/04 16:42:59;;;;;;;12.17;2.50;;;;;;;;;;10321724;28;20214;-73
2020/12/04 16:48:02;;;;;;;5.93;2.00;;;;;;;;;;10317930;28;20255;-73
2020/12/04 16:53:04;;;;;;;6.53;2.20;;;;;;;;;;10333297;28;20217;-72
2020/12/04 16:58:06;;;;;;;6.53;2.30;;;;;;;;;;10307467;28;20209;-73
2020/12/04 17:03:08;;;;;;;5.87;2.67;;;;;;;;;;10322700;28;20205;-73
2020/12/04 17:08:10;;;;;;;6.33;2.70;;;;;;;;;;10315261;28;20230;-73
2020/12/04 17:13:12;;;;;;;3.30;2.00;;;;;;;;;;10312572;28;20216;-73
2020/12/04 17:18:14;;;;;;;5.30;2.40;;;;;;;;;;10312187;28;20905;-73
2020/12/04 17:23:16;;;;;;;5.70;2.23;;;;;;;;;;10319409;28;20205;-72
2020/12/04 17:28:18;;;;;;;5.43;2.50;;;;;;;;;;10318952;28;20587;-72
2020/12/04 17:33:21;;;;;;;4.20;2.33;;;;;;;;;;10318376;28;20210;-71
2020/12/04 17:38:23;;;;;;;9.63;2.57;;;;;;;;;;10306705;28;20732;-71
2020/12/04 17:43:25;;;;;;;5.23;2.50;;;;;;;;;;10307669;28;20217;-71
2020/12/04 17:48:27;;;;;;;4.97;2.20;;;;;;;;;;10309622;28;20240;-72
2020/12/04 17:53:29;;;;;;;6.67;2.40;;;;;;;;;;10316202;28;20216;-72
2020/12/04 17:58:31;;;;;;;7.20;2.40;;;;;;;;;;10307405;28;20695;-72
2020/12/04 18:03:35;;;;;;;5.47;3.03;;;;;;;;;;10307855;28;20220;-71
2020/12/04 18:08:37;;;;;;;8.03;2.63;;;;;;;;;;10307348;28;20236;-70
2020/12/04 18:13:38;;;;;;;7.23;2.90;;;;;;;;;;10313932;28;20220;-70
2020/12/04 18:18:42;;;;;;;5.50;2.27;;;;;;;;;;10300898;28;20216;-71
2020/12/04 18:23:44;;;;;;;7.87;2.70;;;;;;;;;;10306532;28;20214;-72
2020/12/04 18:28:45;;;;;;;7.83;2.60;;;;;;;;;;10299940;28;20246;-71
2020/12/04 18:33:48;;;;;;;5.33;2.63;;;;;;;;;;10305520;28;20216;-70
2020/12/04 18:38:50;;;;;;;7.70;2.80;;;;;;;;;;10309215;28;20617;-71
2020/12/04 18:43:52;;;;;;;5.83;2.40;;;;;;;;;;10306642;28;20232;-71
2020/12/04 18:48:55;;;;;;;6.83;2.50;;;;;;;;;;10299466;28;20866;-71
2020/12/04 18:53:57;;;;;;;9.23;2.63;;;;;;;;;;10304790;28;20209;-71
2020/12/04 18:58:58;;;;;;;8.27;2.60;;;;;;;;;;10308691;28;20618;-71
2020/12/04 19:04:01;;;;;;;5.50;2.80;;;;;;;;;;10316564;28;20209;-72
2020/12/04 19:09:03;;;;;;;5.87;2.90;;;;;;;;;;10314558;28;22295;-71
2020/12/04 19:14:05;;;;;;;5.40;3.00;;;;;;;;;;10313885;28;20220;-71
2020/12/04 19:19:08;;;;;;;8.57;3.37;;;;;;;;;;10311493;28;20201;-71
2020/12/04 19:24:10;;;;;;;6.23;3.30;;;;;;;;;;10319967;28;20237;-72
2020/12/04 19:29:12;;;;;;;10.83;3.43;;;;;;;;;;10312920;28;20233;-72
2020/12/04 19:34:15;;;;;;;6.77;3.80;;;;;;;;;;10308740;28;20206;-72
2020/12/04 19:39:17;;;;;;;12.43;4.17;;;;;;;;;;10317164;28;20210;-71
2020/12/04 19:44:19;;;;;;;6.33;3.50;;;;;;;;;;10311554;28;20213;-71
2020/12/04 19:49:22;;;;;;;10.07;3.33;;;;;;;;;;10309029;28;20247;-71
2020/12/04 19:54:27;;;;;;;7.97;3.57;;;;;;;;;;10301835;28;20228;-72
2020/12/04 19:59:29;;;;;;;8.97;3.40;;;;;;;;;;10318565;28;20201;-71
2020/12/04 20:04:33;;;;;;;11.17;3.77;;;;;;;;;;10318494;28;20213;-72
2020/12/04 20:09:35;;;;;;;8.47;3.67;;;;;;;;;;10315498;28;20238;-72
2020/12/04 20:14:37;;;;;;;12.20;4.10;;;;;;;;;;10308430;28;20205;-72
2020/12/04 20:19:40;;;;;;;7.83;4.10;;;;;;;;;;10301699;28;20214;-72
2020/12/04 20:24:41;;;;;;;7.03;4.10;;;;;;;;;;10309606;28;20252;-71
2020/12/04 20:29:43;;;;;;;10.53;4.83;;;;;;;;;;10312029;28;20248;-71
2020/12/04 20:34:46;;;;;;;11.50;4.53;;;;;;;;;;10309725;28;20236;-71
2020/12/04 20:39:49;;;;;;;10.17;4.10;;;;;;;;;;10311962;28;20221;-71
2020/12/04 20:44:50;;;;;;;7.73;4.00;;;;;;;;;;10305231;28;20209;-71
2020/12/04 20:49:57;;;;;;;8.40;4.33;;;;;;;;;;10302481;28;21132;-72
2020/12/04 20:54:59;;;;;;;12.77;4.70;;;;;;;;;;10311891;28;20228;-71
2020/12/04 21:00:01;;;;;;;13.87;6.00;;;;;;;;;;10310065;28;20228;-71
2020/12/04 21:05:04;;;;;;;16.33;4.90;;;;;;;;;;10307341;28;20645;-71
2020/12/04 21:10:06;;;;;;;9.63;4.50;;;;;;;;;;10311851;28;20236;-71
2020/12/04 21:15:08;;;;;;;14.33;5.03;;;;;;;;;;10314814;28;20301;-69
2020/12/04 21:20:11;;;;;;;14.90;4.30;;;;;;;;;;10299615;28;20213;-70
2020/12/04 21:25:12;;;;;;;10.87;5.07;;;;;;;;;;10311702;28;20236;-70
2020/12/04 21:30:14;;;;;;;11.87;5.07;;;;;;;;;;10308065;28;20244;-70
2020/12/04 21:35:17;;;;;;;11.03;4.80;;;;;;;;;;10306473;28;20213;-70
2020/12/04 21:40:19;;;;;;;10.43;5.10;;;;;;;;;;10299425;28;20596;-73
2020/12/04 21:45:21;;;;;;;10.13;4.43;;;;;;;;;;10301473;28;20241;-72
2020/12/04 21:50:23;;;;;;;15.13;4.90;;;;;;;;;;10307194;28;20737;-72
2020/12/04 21:55:25;;;;;;;13.07;3.77;;;;;;;;;;10314904;28;20220;-72
2020/12/04 22:00:27;;;;;;;9.87;4.13;;;;;;;;;;10304195;28;20732;-72
2020/12/04 22:05:30;;;;;;;9.47;4.20;;;;;;;;;;10307806;28;20208;-71
2020/12/04 22:10:32;;;;;;;8.17;3.77;;;;;;;;;;10307782;28;20233;-72
2020/12/04 22:15:38;;;;;;;10.70;4.00;;;;;;;;;;10298972;28;20772;-71
2020/12/04 22:20:41;;;;;;;11.53;4.23;;;;;;;;;;10303438;28;20214;-71
2020/12/04 22:25:43;;;;;;;9.23;3.90;;;;;;;;;;10308479;28;20233;-71
2020/12/04 22:30:45;;;;;;;9.87;3.43;;;;;;;;;;10312743;28;20213;-71
2020/12/04 22:35:47;;;;;;;7.23;3.90;;;;;;;;;;10316625;28;20224;-69
2020/12/04 22:40:49;;;;;;;9.70;3.90;;;;;;;;;;10312782;28;20631;-70
2020/12/04 22:45:51;;;;;;;8.17;4.07;;;;;;;;;;10314972;28;20205;-71
2020/12/04 22:50:53;;;;;;;12.80;4.30;;;;;;;;;;10317064;28;20216;-73
2020/12/04 22:55:55;;;;;;;12.80;4.20;;;;;;;;;;10318160;28;20221;-70
2020/12/04 23:00:57;;;;;;;14.77;4.03;;;;;;;;;;10315481;28;20410;-70
2020/12/04 23:06:00;;;;;;;10.47;4.80;;;;;;;;;;10320910;28;20206;-71
2020/12/04 23:11:01;;;;;;;10.20;5.10;;;;;;;;;;10348052;28;20213;-70
2020/12/04 23:16:03;;;;;;;13.50;4.57;;;;;;;;;;10348984;28;20735;-70
2020/12/04 23:21:06;;;;;;;11.77;4.57;;;;;;;;;;10345237;28;20750;-71
2020/12/04 23:26:07;;;;;;;12.10;4.83;;;;;;;;;;10324373;28;20637;-70
2020/12/04 23:31:09;;;;;;;11.57;4.57;;;;;;;;;;10321847;28;20220;-71
2020/12/04 23:36:12;;;;;;;9.93;4.67;;;;;;;;;;10318951;28;20579;-71
2020/12/04 23:41:14;;;;;;;10.43;5.00;;;;;;;;;;10319532;28;20209;-71
2020/12/04 23:46:16;;;;;;;15.23;5.03;;;;;;;;;;10320429;28;20233;-71
2020/12/04 23:51:19;;;;;;;10.90;4.90;;;;;;;;;;10327365;28;20209;-70
2020/12/04 23:56:21;;;;;;;14.00;5.83;;;;;;;;;;10323925;28;20206;-70
